KLAF/LAF METAR and TAF weather

Enter ICAO airport designator
Station Type Date Time Source
KLAF METAR 2021/07/24 18:54 UTC NOAA

KLAF 241854Z 22009KT 9SM SCT036 BKN044 31/23 A2993 RMK AO2 SLP128 T03060233


Station Type Date Time Source
KLAF Decoded METAR 2021/07/24 18:54 UTC NOAA

LAFAYETTE PURDUE UNIV AIRPORT , IN, United States (KLAF) 40-25N 86-57W 182M
Jul 24, 2021 - 02:54 PM EDT / 2021.07.24 1854 UTC
Wind: from the SW (220 degrees) at 10 MPH (9 KT):0
Visibility: 9 mile(s):0
Sky conditions: mostly cloudy
Temperature: 87.1 F (30.6 C)
Heat index: 95.4 F (35.2 C):1
Dew Point: 73.9 F (23.3 C)
Relative Humidity: 65%
Pressure (altimeter): 29.93 in. Hg (1013 hPa)
ob: KLAF 241854Z 22009KT 9SM SCT036 BKN044 31/23 A2993 RMK AO2 SLP128 T03060233
cycle: 19

Station Type Date Time Source
KLAF TAF 2021/07/24 18:22 UTC NOAA

TAF KLAF 241720Z 2418/2518 22010KT P6SM FEW040 SCT100
FM242200 23007KT P6SM SCT040
FM250000 24006KT P6SM VCTS SCT040CB BKN250
FM251200 31004KT P6SM BKN050

Example: see airport list